Time;durP1;ratioP1;P1;durP2;ratioP2;P2;SDS_P1;SDS_P2;PMS_P1;PMS_P2;Temp;Humidity;BMP_temperature;BMP_pressure;BME280_temperature;BME280_humidity;BME280_pressure;Samples;Min_cycle;Max_cycle;Signal;HPM_P1;HPM_P2
2022/06/21 15:26:42;;;;;;;1.60;1.50;;;;;;;25.31;23.06;98657.84;5171485;27;20175;-62
2022/06/21 15:29:12;;;;;;;3.75;1.35;;;;;;;25.10;22.93;98662.09;5171642;27;20046;-63
2022/06/21 15:31:46;;;;;;;1.55;1.27;;;;;;;25.32;22.54;98664.91;5171761;27;20091;-64
2022/06/21 15:34:19;;;;;;;1.50;1.40;;;;;;;25.40;22.84;98658.97;5171597;27;20046;-63
2022/06/21 15:36:48;;;;;;;2.42;1.50;;;;;;;25.39;22.76;98661.75;5171345;27;20423;-64
2022/06/21 15:39:27;;;;;;;5.25;1.50;;;;;;;25.40;22.31;98668.81;5170953;27;20480;-63
2022/06/21 15:42:01;;;;;;;2.25;1.30;;;;;;;25.61;22.46;98682.28;5170334;27;20468;-63
2022/06/21 15:44:39;;;;;;;4.40;1.70;;;;;;;25.40;22.54;98680.31;5161300;27;20061;-66
2022/06/21 15:52:41;;;;;;;1.40;1.30;;;;;;;24.79;23.21;98691.03;5149874;27;20045;-67
2022/06/21 15:55:11;;;;;;;2.38;1.20;;;;;;;24.88;23.09;98710.84;5150013;27;20081;-66
2022/06/21 15:57:41;;;;;;;3.78;1.50;;;;;;;24.78;23.16;98705.34;5149606;27;20046;-66
2022/06/21 16:00:15;;;;;;;2.75;1.85;;;;;;;24.74;23.59;98703.84;5149610;27;20043;-66
2022/06/21 16:02:49;;;;;;;6.65;3.40;;;;;;;24.50;23.87;98693.97;5159918;27;20100;-66
2022/06/21 16:05:22;;;;;;;3.58;2.33;;;;;;;24.36;23.77;98708.28;5158694;27;20389;-67
2022/06/21 16:07:52;;;;;;;5.35;2.80;;;;;;;24.50;23.94;98707.28;5159364;27;20042;-67
2022/06/21 16:10:24;;;;;;;7.93;3.80;;;;;;;24.46;24.09;98710.28;5156391;27;20099;-66
2022/06/21 16:12:52;;;;;;;7.50;4.30;;;;;;;24.50;24.33;98709.94;5158528;27;20046;-66
2022/06/21 16:15:20;;;;;;;14.90;9.65;;;;;;;24.50;24.26;98706.44;5149493;27;20070;-66
2022/06/21 16:17:48;;;;;;;18.90;12.57;;;;;;;24.32;24.53;98716.59;5149587;27;20078;-67
2022/06/21 16:20:17;;;;;;;21.60;12.85;;;;;;;24.09;24.54;98708.41;5149182;27;20035;-67
2022/06/21 16:22:46;;;;;;;23.90;16.35;;;;;;;24.20;24.69;98699.69;5149311;27;20039;-66
2022/06/21 16:25:17;;;;;;;16.70;11.55;;;;;;;24.15;24.39;98707.97;5147908;27;20903;-66
2022/06/21 16:27:47;;;;;;;16.77;11.30;;;;;;;24.07;24.92;98709.50;5148655;27;20046;-66
2022/06/21 16:30:17;;;;;;;12.73;5.60;;;;;;;24.17;24.83;98708.75;5148022;27;20046;-66
2022/06/21 16:35:49;;;;;;;7.50;2.70;;;;;;;24.07;25.08;98713.00;5095260;28;20741;-66
2022/06/21 16:38:17;;;;;;;4.30;1.70;;;;;;;23.97;25.12;98709.28;5132061;27;20095;-66
2022/06/21 16:43:49;;;;;;;4.47;1.80;;;;;;;24.03;24.97;98716.00;5118478;27;20534;-66
2022/06/21 16:46:21;;;;;;;2.85;1.70;;;;;;;24.00;25.01;98713.53;5145155;27;20066;-67
2022/06/21 16:48:52;;;;;;;2.28;1.70;;;;;;;24.08;24.93;98720.03;5143787;27;20412;-67
2022/06/21 16:51:27;;;;;;;2.13;1.60;;;;;;;23.95;25.02;98713.88;5150031;27;20046;-67
2022/06/21 16:53:57;;;;;;;2.55;1.58;;;;;;;23.80;25.12;98712.25;5155857;27;20043;-68
2022/06/21 16:56:24;;;;;;;2.83;1.50;;;;;;;23.48;25.46;98707.31;5152925;27;20107;-67
2022/06/21 16:58:52;;;;;;;2.83;1.50;;;;;;;23.39;25.58;98717.59;5143558;27;20078;-67
2022/06/21 17:01:22;;;;;;;2.70;1.40;;;;;;;23.31;25.61;98717.25;5142720;27;20042;-68
2022/06/21 17:03:50;;;;;;;4.18;1.63;;;;;;;23.30;25.59;98710.25;5143205;27;20489;-68
2022/06/21 17:06:25;;;;;;;2.88;1.40;;;;;;;23.15;25.66;98705.97;5144094;27;20074;-68
2022/06/21 17:09:12;;;;;;;2.22;1.60;;;;;;;23.18;25.84;98705.75;5139139;27;20050;-68
2022/06/21 17:11:48;;;;;;;5.70;1.65;;;;;;;23.15;27.21;98705.97;5136329;27;20043;-51
2022/06/21 17:14:15;;;;;;;7.03;2.15;;;;;;;23.44;27.66;98700.47;5147260;27;20039;-49
2022/06/21 17:16:51;;;;;;;9.13;1.85;;;;;;;23.66;28.05;98706.06;5155498;27;20105;-49
2022/06/21 17:19:22;;;;;;;13.60;1.90;;;;;;;23.85;28.33;98715.47;5154989;27;20424;-48
2022/06/21 17:21:54;;;;;;;10.45;3.15;;;;;;;24.00;28.55;98713.53;5155361;27;20099;-49
2022/06/21 17:24:25;;;;;;;13.95;2.05;;;;;;;24.10;28.53;98699.50;5155307;27;20193;-48
2022/06/21 17:26:58;;;;;;;9.45;1.67;;;;;;;24.24;28.49;98710.97;5155068;27;20046;-49
2022/06/21 17:29:31;;;;;;;13.52;2.20;;;;;;;24.33;28.51;98711.19;5155160;27;20528;-48
2022/06/21 17:31:59;;;;;;;11.25;1.80;;;;;;;24.41;28.60;98707.97;5155095;27;20115;-48
2022/06/21 17:34:30;;;;;;;9.05;1.70;;;;;;;24.49;28.46;98704.75;5154927;27;20051;-49
2022/06/21 17:37:03;;;;;;;3.40;1.52;;;;;;;24.56;28.52;98716.69;5155259;27;20047;-49
2022/06/21 17:39:33;;;;;;;4.13;2.20;;;;;;;24.63;28.58;98711.78;5155208;27;20043;-49
2022/06/21 17:42:02;;;;;;;3.83;1.70;;;;;;;24.69;28.40;98711.31;5155241;27;20086;-49
2022/06/21 17:44:32;;;;;;;4.07;1.50;;;;;;;24.74;28.49;98715.34;5155054;27;20047;-48
2022/06/21 17:47:01;;;;;;;2.42;1.40;;;;;;;24.79;28.57;98711.50;5154743;27;20091;-48
2022/06/21 17:49:31;;;;;;;1.30;1.20;;;;;;;24.84;28.41;98709.38;5154013;27;20082;-48
2022/06/21 17:52:01;;;;;;;2.97;1.50;;;;;;;24.90;28.54;98724.91;5154702;27;20103;-49
2022/06/21 17:54:29;;;;;;;1.65;1.25;;;;;;;24.92;28.38;98721.16;5155135;27;20095;-49
2022/06/21 17:56:57;;;;;;;1.80;1.40;;;;;;;24.97;28.29;98726.16;5154615;27;20042;-50
2022/06/21 17:59:25;;;;;;;3.05;1.40;;;;;;;25.00;28.00;98735.72;5154935;27;20091;-48
2022/06/21 18:01:55;;;;;;;1.35;1.33;;;;;;;25.03;28.19;98735.50;5154734;27;20121;-48
2022/06/21 18:04:24;;;;;;;1.60;1.50;;;;;;;25.06;28.17;98721.94;5154978;27;20050;-48
2022/06/21 18:06:54;;;;;;;1.95;1.52;;;;;;;25.08;28.08;98733.34;5154640;27;20110;-48
2022/06/21 18:09:30;;;;;;;3.92;1.70;;;;;;;25.10;27.95;98732.25;5154887;27;20046;-49
2022/06/21 18:12:03;;;;;;;2.25;1.58;;;;;;;25.13;27.98;98736.53;5154231;27;20053;-48
2022/06/21 18:14:33;;;;;;;1.85;1.50;;;;;;;25.14;27.89;98728.44;5154537;27;20080;-49
2022/06/21 18:17:06;;;;;;;2.83;1.52;;;;;;;25.17;27.56;98750.50;5154233;27;20441;-48
2022/06/21 18:19:48;;;;;;;3.47;1.50;;;;;;;25.19;27.57;98748.56;5154364;27;20047;-48
2022/06/21 18:22:20;;;;;;;3.13;1.50;;;;;;;25.18;27.61;98750.34;5154006;27;20111;-48
2022/06/21 18:24:51;;;;;;;1.50;1.40;;;;;;;25.22;27.60;98761.63;5154218;27;20086;-48
2022/06/21 18:27:21;;;;;;;1.95;1.60;;;;;;;25.21;27.62;98755.47;5154195;27;20136;-48
2022/06/21 18:29:52;;;;;;;2.47;1.40;;;;;;;25.25;27.50;98767.63;5153896;27;20071;-49
2022/06/21 18:32:39;;;;;;;3.05;1.60;;;;;;;25.25;27.00;98770.31;5153744;27;20541;-52
2022/06/21 18:35:07;;;;;;;1.67;1.58;;;;;;;25.27;27.73;98779.03;5153946;27;20047;-48
2022/06/21 18:37:44;;;;;;;1.70;1.60;;;;;;;25.27;27.29;98778.19;5153969;27;20114;-48
2022/06/21 18:40:16;;;;;;;4.22;1.70;;;;;;;25.28;27.44;98782.53;5154081;27;20047;-48
2022/06/21 18:42:52;;;;;;;1.98;1.70;;;;;;;25.28;27.23;98787.88;5153815;27;20055;-48
2022/06/21 18:45:30;;;;;;;3.88;1.58;;;;;;;25.28;27.36;98796.75;5153579;27;20479;-49
2022/06/21 18:48:01;;;;;;;1.92;1.38;;;;;;;25.29;27.51;98794.94;5153985;27;20137;-48
2022/06/21 18:50:34;;;;;;;2.42;1.50;;;;;;;25.31;27.35;98809.00;5153356;27;20042;-48
2022/06/21 18:53:11;;;;;;;2.22;1.50;;;;;;;25.29;27.18;98811.78;5153968;27;20047;-48
2022/06/21 18:55:44;;;;;;;2.55;1.50;;;;;;;25.31;27.29;98822.31;5153579;27;20103;-48
2022/06/21 18:58:18;;;;;;;3.08;1.50;;;;;;;25.32;27.27;98826.72;5153713;27;20093;-48
2022/06/21 19:00:46;;;;;;;3.08;1.45;;;;;;;25.31;27.31;98831.16;5153466;27;20039;-49
2022/06/21 19:03:16;;;;;;;1.70;1.60;;;;;;;25.32;27.62;98835.56;5153527;27;20085;-48
2022/06/21 19:08:45;;;;;;;2.20;1.70;;;;;;;25.33;27.48;98839.06;5153478;27;20058;-49
2022/06/21 19:11:23;;;;;;;1.67;1.50;;;;;;;25.31;27.11;98831.16;5153394;27;20091;-48
2022/06/21 19:13:53;;;;;;;2.90;1.60;;;;;;;25.33;27.65;98837.25;5153507;27;20074;-47
2022/06/21 19:16:30;;;;;;;1.92;1.50;;;;;;;25.33;27.09;98849.72;5144287;27;20047;-47
2022/06/21 19:19:24;;;;;;;3.92;1.67;;;;;;;24.93;25.83;98853.44;5142449;27;20108;-64
2022/06/21 19:22:02;;;;;;;2.22;1.70;;;;;;;24.28;26.22;98853.56;5132572;27;20043;-66
2022/06/21 19:24:40;;;;;;;2.17;1.70;;;;;;;23.58;27.18;98857.31;5133171;27;20126;-65
2022/06/21 19:27:11;;;;;;;4.05;1.90;;;;;;;23.12;28.13;98852.31;5143400;27;20038;-66
2022/06/21 19:30:11;;;;;;;3.28;1.90;;;;;;;22.70;28.54;98852.22;5140388;27;20111;-66
2022/06/21 19:33:21;;;;;;;7.45;2.00;;;;;;;22.43;28.93;98846.81;5137912;27;20035;-67
2022/06/21 19:35:54;;;;;;;3.40;1.90;;;;;;;22.21;29.54;98840.09;5133219;27;20501;-65
2022/06/21 19:38:29;;;;;;;1.92;1.80;;;;;;;22.08;29.65;98846.25;5135730;27;20039;-65
2022/06/21 19:40:58;;;;;;;;;;;;;;;21.90;30.05;98842.88;5150098;27;20100;-65
2022/06/21 19:43:54;;;;;;;3.55;1.90;;;;;;;21.94;30.25;98845.25;5148797;27;19919;-63
2022/06/21 19:46:22;;;;;;;2.95;1.90;;;;;;;21.89;30.23;98846.47;5123041;27;20099;-63
2022/06/21 19:48:52;;;;;;;4.15;2.00;;;;;;;21.52;30.70;98849.47;5008306;27;20053;-63
2022/06/21 19:51:22;;;;;;;4.88;2.20;;;;;;;21.33;31.15;98854.94;5033180;28;69992;-62
2022/06/21 19:53:53;;;;;;;7.30;3.30;;;;;;;21.38;31.02;98834.34;4990432;28;130119;-62
2022/06/21 19:56:43;;;;;;;6.80;3.67;;;;;;;21.51;31.06;98841.63;5091156;28;20048;-62
2022/06/21 19:59:22;;;;;;;3.22;2.15;;;;;;;21.49;31.08;98836.38;5090687;28;20052;-63
2022/06/21 20:02:14;;;;;;;3.17;2.03;;;;;;;21.58;31.21;98842.97;5091098;28;20118;-63
2022/06/21 20:04:57;;;;;;;3.55;2.10;;;;;;;21.48;31.13;98847.06;5090768;28;20051;-62
2022/06/21 20:07:33;;;;;;;2.83;2.20;;;;;;;21.36;31.26;98854.75;5091016;28;20506;-62
2022/06/21 20:10:01;;;;;;;2.92;2.00;;;;;;;21.42;31.20;98843.81;5090790;28;20044;-64
2022/06/21 20:12:28;;;;;;;3.22;2.10;;;;;;;21.33;31.43;98844.34;5092944;28;20051;-64
2022/06/21 20:14:58;;;;;;;4.05;1.90;;;;;;;21.36;31.30;98840.66;5094445;28;20555;-64
2022/06/21 20:17:28;;;;;;;2.13;1.83;;;;;;;21.34;31.32;98850.47;5042624;28;20442;-63
2022/06/21 20:19:58;;;;;;;3.63;1.90;;;;;;;21.27;31.63;98844.69;5102125;28;20047;-63
2022/06/21 20:22:33;;;;;;;4.25;2.10;;;;;;;21.27;31.81;98847.34;5105925;28;20559;-63
2022/06/21 20:25:11;;;;;;;5.93;2.30;;;;;;;21.14;32.04;98852.44;5101339;28;20080;-64
2022/06/21 20:27:52;;;;;;;2.50;1.95;;;;;;;21.20;32.11;98853.91;5106481;28;20048;-64
2022/06/21 20:30:20;;;;;;;2.67;1.90;;;;;;;21.04;32.41;98865.34;5097972;28;20051;-63
